createdAt,value
2018-05-02T00:00:18.979Z,1000.55
2018-05-02T00:01:18.924Z,1000.55
2018-05-02T00:03:11.767Z,1000.57
2018-05-02T00:04:11.740Z,1000.55
2018-05-02T00:06:04.596Z,1000.55
2018-05-02T00:07:04.561Z,1000.53
2018-05-02T00:08:57.403Z,1000.50
2018-05-02T00:09:57.377Z,1000.51
2018-05-02T00:11:50.233Z,1000.53
2018-05-02T00:12:50.197Z,1000.48
2018-05-02T00:14:43.043Z,1000.48
2018-05-02T00:15:43.013Z,1000.45
2018-05-02T00:17:35.868Z,1000.43
2018-05-02T00:18:35.832Z,1000.43
2018-05-02T00:20:28.678Z,1000.46
2018-05-02T00:21:28.651Z,1000.41
2018-05-02T00:23:21.504Z,1000.44
2018-05-02T00:24:21.477Z,1000.41
2018-05-02T00:26:14.319Z,1000.45
2018-05-02T00:27:14.291Z,1000.42
2018-05-02T00:29:07.149Z,1000.44
2018-05-02T00:30:07.104Z,1000.41
2018-05-02T00:31:59.950Z,1000.43
2018-05-02T00:32:59.929Z,1000.42
2018-05-02T00:34:52.795Z,1000.44
2018-05-02T00:35:52.743Z,1000.43
2018-05-02T00:37:45.583Z,1000.40
2018-05-02T00:38:45.560Z,1000.47
2018-05-02T00:40:38.407Z,1000.48
2018-05-02T00:41:38.375Z,1000.55
2018-05-02T00:43:31.217Z,1000.48
2018-05-02T00:44:31.192Z,1000.51
2018-05-02T00:46:24.048Z,1000.52
2018-05-02T00:47:24.012Z,1000.54
2018-05-02T00:49:16.849Z,1000.59
2018-05-02T00:50:16.827Z,1000.57
2018-05-02T00:52:09.688Z,1000.53
2018-05-02T00:53:09.654Z,1000.52
2018-05-02T00:55:02.493Z,1000.47
2018-05-02T00:56:02.466Z,1000.48
2018-05-02T00:57:55.319Z,1000.46
2018-05-02T00:58:55.283Z,1000.46
2018-05-02T01:00:48.123Z,1000.45
2018-05-02T01:01:48.099Z,1000.45
2018-05-02T01:03:40.955Z,1000.45
2018-05-02T01:04:40.918Z,1000.44
2018-05-02T01:06:33.756Z,1000.49
2018-05-02T01:07:33.732Z,1000.46
2018-05-02T01:09:26.588Z,1000.48
2018-05-02T01:10:26.550Z,1000.50
2018-05-02T01:12:19.391Z,1000.46
2018-05-02T01:13:19.366Z,1000.48
2018-05-02T01:15:12.220Z,1000.48
2018-05-02T01:16:12.182Z,1000.41
2018-05-02T01:18:05.026Z,1000.43
2018-05-02T01:19:05.001Z,1000.48
2018-05-02T01:20:57.856Z,1000.45
2018-05-02T01:21:57.824Z,1000.42
2018-05-02T01:23:50.656Z,1000.42
2018-05-02T01:24:50.632Z,1000.40
2018-05-02T01:26:43.494Z,1000.39
2018-05-02T01:27:43.451Z,1000.38
2018-05-02T01:29:36.293Z,1000.42
2018-05-02T01:30:36.268Z,1000.40
2018-05-02T01:32:29.127Z,1000.39
2018-05-02T01:33:29.087Z,1000.41
2018-05-02T01:35:21.934Z,1000.38
2018-05-02T01:36:21.910Z,1000.34
2018-05-02T01:38:14.762Z,1000.38
2018-05-02T01:39:14.722Z,1000.38
2018-05-02T01:41:07.567Z,1000.39
2018-05-02T01:42:07.572Z,1000.36
2018-05-02T01:44:00.395Z,1000.34
2018-05-02T01:45:00.362Z,1000.34
2018-05-02T01:46:53.197Z,1000.34
2018-05-02T01:47:53.172Z,1000.32
2018-05-02T01:49:46.033Z,1000.39
2018-05-02T01:50:45.987Z,1000.40
2018-05-02T01:52:38.838Z,1000.39
2018-05-02T01:53:38.809Z,1000.41
2018-05-02T01:55:31.667Z,1000.33
2018-05-02T01:56:31.629Z,1000.29
2018-05-02T01:58:24.466Z,1000.11
2018-05-02T01:59:24.442Z,1000.11
2018-05-02T02:01:17.308Z,1000.10
2018-05-02T02:02:17.263Z,1000.17
2018-05-02T02:04:10.115Z,1000.18
2018-05-02T02:05:10.087Z,1000.13
2018-05-02T02:07:02.935Z,1000.09
2018-05-02T02:08:02.904Z,1000.14
2018-05-02T02:09:55.739Z,1000.16
2018-05-02T02:10:55.714Z,1000.19
2018-05-02T02:12:48.570Z,1000.24
2018-05-02T02:13:48.539Z,1000.30
2018-05-02T02:15:41.373Z,1000.26
2018-05-02T02:16:41.349Z,1000.31
2018-05-02T02:18:34.205Z,1000.27
2018-05-02T02:19:34.169Z,1000.23
2018-05-02T02:21:27.015Z,1000.26
2018-05-02T02:22:26.991Z,1000.27
2018-05-02T02:24:19.837Z,1000.24
2018-05-02T02:25:19.802Z,1000.27
2018-05-02T02:27:12.652Z,1000.22
2018-05-02T02:28:12.621Z,1000.18
2018-05-02T02:30:05.481Z,1000.17
2018-05-02T02:31:05.444Z,1000.14
2018-05-02T02:32:58.285Z,1000.07
2018-05-02T02:33:58.373Z,1000.09
2018-05-02T02:35:51.120Z,1000.04
2018-05-02T02:36:51.081Z,1000.10
2018-05-02T02:38:43.920Z,999.99
2018-05-02T02:39:43.895Z,999.94
2018-05-02T02:41:36.751Z,999.94
2018-05-02T02:42:36.712Z,999.97
2018-05-02T02:44:29.555Z,1000.00
2018-05-02T02:45:29.554Z,1000.00
2018-05-02T02:47:22.386Z,1000.00
2018-05-02T02:48:22.348Z,1000.01
2018-05-02T02:50:15.191Z,999.98
2018-05-02T02:51:15.159Z,999.98
2018-05-02T02:53:08.020Z,999.99
2018-05-02T02:54:07.981Z,1000.03
2018-05-02T02:56:00.822Z,1000.00
2018-05-02T02:57:00.800Z,1000.05
2018-05-02T02:58:53.650Z,999.99
2018-05-02T02:59:53.614Z,1000.02
2018-05-02T03:01:46.456Z,1000.03
2018-05-02T03:02:46.430Z,1000.09
2018-05-02T03:04:39.291Z,1000.05
2018-05-02T03:05:39.252Z,1000.04
2018-05-02T03:07:32.098Z,1000.04
2018-05-02T03:08:32.070Z,1000.04
2018-05-02T03:10:24.920Z,1000.01
2018-05-02T03:11:24.882Z,1000.06
2018-05-02T03:13:17.724Z,1000.06
2018-05-02T03:14:17.701Z,1000.13
2018-05-02T03:16:10.554Z,1000.17
2018-05-02T03:17:10.517Z,1000.16
2018-05-02T03:19:03.360Z,1000.12
2018-05-02T03:20:03.338Z,1000.08
2018-05-02T03:21:56.190Z,1000.04
2018-05-02T03:22:56.153Z,1000.04
2018-05-02T03:24:48.999Z,1000.03
2018-05-02T03:25:48.973Z,1000.00
2018-05-02T03:27:41.906Z,1000.08
2018-05-02T03:28:41.793Z,1000.11
2018-05-02T03:30:34.642Z,1000.09
2018-05-02T03:31:34.618Z,1000.04
2018-05-02T03:33:27.464Z,1000.05
2018-05-02T03:34:27.435Z,1000.05
2018-05-02T03:36:20.339Z,1000.01
2018-05-02T03:37:20.255Z,999.97
2018-05-02T03:39:13.115Z,999.94
2018-05-02T03:40:13.080Z,999.95
2018-05-02T03:42:05.932Z,999.96
2018-05-02T03:43:05.904Z,999.98
2018-05-02T03:44:58.756Z,999.96
2018-05-02T03:45:58.720Z,999.94
2018-05-02T03:47:51.561Z,999.89
2018-05-02T03:48:51.541Z,999.90
2018-05-02T03:50:44.392Z,999.90
2018-05-02T03:51:44.356Z,999.93
2018-05-02T03:53:37.204Z,999.87
2018-05-02T03:54:37.184Z,999.89
2018-05-02T03:56:30.056Z,999.89
2018-05-02T03:57:30.001Z,999.87
2018-05-02T03:59:22.848Z,999.95
2018-05-02T04:00:22.822Z,999.95
2018-05-02T04:02:15.680Z,999.88
2018-05-02T04:03:15.644Z,999.84
2018-05-02T04:05:08.490Z,999.88
2018-05-02T04:06:08.464Z,999.92
2018-05-02T04:08:01.321Z,999.91
2018-05-02T04:09:01.287Z,999.93
2018-05-02T04:10:54.148Z,999.92
2018-05-02T04:11:54.132Z,999.87
2018-05-02T04:13:46.977Z,999.91
2018-05-02T04:14:46.945Z,999.86
2018-05-02T04:16:39.788Z,999.86
2018-05-02T04:17:39.765Z,999.80
2018-05-02T04:19:32.622Z,999.85
2018-05-02T04:20:32.627Z,999.82
2018-05-02T04:22:25.430Z,999.84
2018-05-02T04:23:25.407Z,999.85
2018-05-02T04:25:18.267Z,999.84
2018-05-02T04:26:18.228Z,999.91
2018-05-02T04:28:11.072Z,999.91
2018-05-02T04:29:11.048Z,999.92
2018-05-02T04:31:03.905Z,999.95
2018-05-02T04:32:03.873Z,999.90
2018-05-02T04:33:56.720Z,999.88
2018-05-02T04:34:56.697Z,999.97
2018-05-02T04:36:49.556Z,999.96
2018-05-02T04:37:49.525Z,999.95
2018-05-02T04:39:42.365Z,1000.00
2018-05-02T04:40:42.345Z,999.99
2018-05-02T04:42:35.201Z,1000.01
2018-05-02T04:43:35.167Z,1000.02
2018-05-02T04:45:28.011Z,1000.05
2018-05-02T04:46:27.988Z,1000.13
2018-05-02T04:48:20.845Z,1000.13
2018-05-02T04:49:20.814Z,1000.16
2018-05-02T04:51:13.660Z,1000.16
2018-05-02T04:52:13.638Z,1000.20
2018-05-02T04:54:06.497Z,1000.20
2018-05-02T04:55:06.461Z,1000.18
2018-05-02T04:56:59.315Z,1000.13
2018-05-02T04:57:59.288Z,1000.15
2018-05-02T04:59:52.158Z,1000.18
2018-05-02T05:00:52.110Z,1000.14
2018-05-02T05:02:44.956Z,1000.13
2018-05-02T05:03:44.935Z,1000.16
2018-05-02T05:05:37.836Z,1000.17
2018-05-02T05:06:37.767Z,1000.17
2018-05-02T05:08:30.606Z,1000.05
2018-05-02T05:09:30.577Z,1000.13
2018-05-02T05:11:23.441Z,1000.08
2018-05-02T05:12:23.410Z,1000.11
2018-05-02T05:14:16.248Z,1000.17
2018-05-02T05:15:16.225Z,1000.23
2018-05-02T05:17:09.090Z,1000.19
2018-05-02T05:18:09.054Z,1000.19
2018-05-02T05:20:01.900Z,1000.17
2018-05-02T05:21:01.881Z,1000.21
2018-05-02T05:22:54.734Z,1000.18
2018-05-02T05:23:54.701Z,1000.24
2018-05-02T05:25:47.546Z,1000.20
2018-05-02T05:26:47.525Z,1000.22
2018-05-02T05:28:40.383Z,1000.25
2018-05-02T05:29:40.347Z,1000.24
2018-05-02T05:31:33.195Z,1000.25
2018-05-02T05:32:33.174Z,1000.25
2018-05-02T05:34:26.031Z,1000.31
2018-05-02T05:35:26.006Z,1000.26
2018-05-02T05:37:18.853Z,1000.31
2018-05-02T05:38:18.830Z,1000.29
2018-05-02T05:40:11.686Z,1000.35
2018-05-02T05:41:11.651Z,1000.31
2018-05-02T05:43:04.506Z,1000.39
2018-05-02T05:44:04.475Z,1000.36
2018-05-02T05:45:58.339Z,1000.40
2018-05-02T05:46:58.300Z,1000.38
2018-05-02T05:48:51.151Z,1000.35
2018-05-02T05:49:51.127Z,1000.43
2018-05-02T05:51:43.983Z,1000.43
2018-05-02T05:52:43.954Z,1000.44
2018-05-02T05:54:36.804Z,1000.42
2018-05-02T05:55:36.782Z,1000.40
2018-05-02T05:57:29.644Z,1000.42
2018-05-02T05:58:29.609Z,1000.38
2018-05-02T06:00:22.456Z,1000.37
2018-05-02T06:01:22.435Z,1000.40
2018-05-02T06:03:15.299Z,1000.35
2018-05-02T06:04:15.265Z,1000.39
2018-05-02T06:06:08.191Z,1000.43
2018-05-02T06:07:08.091Z,1000.46
2018-05-02T06:09:00.950Z,1000.50
2018-05-02T06:10:00.920Z,1000.46
2018-05-02T06:11:53.774Z,1000.42
2018-05-02T06:12:53.751Z,1000.44
2018-05-02T06:14:46.616Z,1000.48
2018-05-02T06:15:46.582Z,1000.48
2018-05-02T06:17:39.432Z,1000.43
2018-05-02T06:18:39.497Z,1000.48
2018-05-02T06:20:32.279Z,1000.53
2018-05-02T06:21:32.246Z,1000.48
2018-05-02T06:23:25.172Z,1000.50
2018-05-02T06:24:25.077Z,1000.51
2018-05-02T06:26:18.011Z,1000.55
2018-05-02T06:27:17.912Z,1000.53
2018-05-02T06:29:10.763Z,1000.51
2018-05-02T06:30:10.747Z,1000.52
2018-05-02T06:32:03.614Z,1000.55
2018-05-02T06:33:03.578Z,1000.53
2018-05-02T06:34:56.433Z,1000.53
2018-05-02T06:35:56.413Z,1000.56
2018-05-02T06:37:49.310Z,1000.53
2018-05-02T06:38:49.253Z,1000.49
2018-05-02T06:40:42.106Z,1000.50
2018-05-02T06:41:42.088Z,1000.52
2018-05-02T06:43:34.965Z,1000.44
2018-05-02T06:44:34.922Z,1000.48
2018-05-02T06:46:27.771Z,1000.42
2018-05-02T06:47:27.753Z,1000.41
2018-05-02T06:49:20.698Z,1000.35
2018-05-02T06:50:20.593Z,1000.36
2018-05-02T06:52:13.441Z,1000.38
2018-05-02T06:53:13.427Z,1000.29
2018-05-02T06:55:06.290Z,1000.32
2018-05-02T06:56:06.260Z,1000.32
2018-05-02T06:57:59.119Z,1000.26
2018-05-02T06:58:59.098Z,1000.27
2018-05-02T07:00:52.053Z,1000.29
2018-05-02T07:01:51.935Z,1000.24
2018-05-02T07:03:44.790Z,1000.28
2018-05-02T07:04:44.771Z,1000.22
2018-05-02T07:06:37.639Z,1000.25
2018-05-02T07:07:37.607Z,1000.23
2018-05-02T07:09:30.462Z,1000.25
2018-05-02T07:10:30.442Z,1000.27
2018-05-02T07:12:23.307Z,1000.20
2018-05-02T07:13:23.286Z,1000.14
2018-05-02T07:15:16.139Z,1000.15
2018-05-02T07:16:16.120Z,1000.11
2018-05-02T07:18:08.995Z,1000.13
2018-05-02T07:19:08.966Z,1000.14
2018-05-02T07:21:01.839Z,1000.13
2018-05-02T07:22:01.817Z,1000.13
2018-05-02T07:23:54.686Z,1000.04
2018-05-02T07:24:54.656Z,999.99
2018-05-02T07:26:47.525Z,1000.04
2018-05-02T07:27:47.504Z,1000.03
2018-05-02T07:29:40.367Z,1000.08
2018-05-02T07:30:40.344Z,1000.06
2018-05-02T07:32:33.343Z,1000.04
2018-05-02T07:33:33.185Z,999.96
2018-05-02T07:35:26.056Z,999.97
2018-05-02T07:36:26.026Z,999.97
2018-05-02T07:38:18.883Z,1000.01
2018-05-02T07:39:18.871Z,1000.01
2018-05-02T07:41:11.743Z,1000.01
2018-05-02T07:42:11.737Z,999.98
2018-05-02T07:44:04.571Z,999.99
2018-05-02T07:45:04.556Z,999.97
2018-05-02T07:46:57.420Z,999.95
2018-05-02T07:47:57.398Z,999.96
2018-05-02T07:49:50.261Z,999.90
2018-05-02T07:50:50.244Z,999.93
2018-05-02T07:52:43.117Z,999.90
2018-05-02T07:53:43.092Z,999.90
2018-05-02T07:55:35.953Z,999.95
2018-05-02T07:56:36.017Z,999.94
2018-05-02T07:58:28.811Z,999.95
2018-05-02T07:59:28.784Z,999.92
2018-05-02T08:01:21.647Z,999.94
2018-05-02T08:02:21.631Z,999.94
2018-05-02T08:04:14.506Z,999.93
2018-05-02T08:05:14.478Z,999.93
2018-05-02T08:07:07.337Z,999.96
2018-05-02T08:08:07.323Z,999.88
2018-05-02T08:10:00.203Z,999.88
2018-05-02T08:11:00.255Z,999.89
2018-05-02T08:12:53.040Z,999.93
2018-05-02T08:13:53.022Z,999.95
2018-05-02T08:15:45.898Z,999.87
2018-05-02T08:16:45.875Z,999.84
2018-05-02T08:18:38.744Z,999.88
2018-05-02T08:19:38.727Z,999.83
2018-05-02T08:21:31.607Z,999.82
2018-05-02T08:22:31.581Z,999.84
2018-05-02T08:24:24.446Z,999.87
2018-05-02T08:25:24.427Z,999.92
2018-05-02T08:27:17.314Z,999.93
2018-05-02T08:28:17.283Z,999.89
2018-05-02T08:30:10.151Z,999.81
2018-05-02T08:31:10.133Z,999.82
2018-05-02T08:33:03.010Z,999.85
2018-05-02T08:34:02.988Z,999.87
2018-05-02T08:35:55.865Z,999.81
2018-05-02T08:36:55.836Z,999.87
2018-05-02T08:38:48.766Z,999.78
2018-05-02T08:39:48.687Z,999.75
2018-05-02T08:41:41.558Z,999.77
2018-05-02T08:42:41.539Z,999.79
2018-05-02T08:44:34.415Z,999.70
2018-05-02T08:45:34.390Z,999.73
2018-05-02T08:47:27.255Z,999.80
2018-05-02T08:48:27.240Z,999.73
2018-05-02T08:50:20.114Z,999.69
2018-05-02T08:51:20.094Z,999.70
2018-05-02T08:53:12.959Z,999.74
2018-05-02T08:54:12.943Z,999.73
2018-05-02T08:56:05.821Z,999.66
2018-05-02T08:57:05.796Z,999.67
2018-05-02T08:58:58.662Z,999.77
2018-05-02T08:59:58.653Z,999.72
2018-05-02T09:01:51.562Z,999.69
2018-05-02T09:02:51.503Z,999.64
2018-05-02T09:04:44.365Z,999.67
2018-05-02T09:05:44.351Z,999.68
2018-05-02T09:07:37.223Z,999.65
2018-05-02T09:08:37.201Z,999.69
2018-05-02T09:10:30.071Z,999.74
2018-05-02T09:11:30.054Z,999.71
2018-05-02T09:13:22.929Z,999.69
2018-05-02T09:14:22.911Z,999.64
2018-05-02T09:16:15.768Z,999.61
2018-05-02T09:17:15.755Z,999.60
2018-05-02T09:19:08.632Z,999.59
2018-05-02T09:20:08.603Z,999.56
2018-05-02T09:22:01.471Z,999.60
2018-05-02T09:23:01.458Z,999.57
2018-05-02T09:24:54.405Z,999.58
2018-05-02T09:25:54.313Z,999.56
2018-05-02T09:27:47.173Z,999.57
2018-05-02T09:28:47.157Z,999.57
2018-05-02T09:30:40.037Z,999.52
2018-05-02T09:31:40.010Z,999.52
2018-05-02T09:33:32.877Z,999.50
2018-05-02T09:34:32.864Z,999.48
2018-05-02T09:36:25.737Z,999.43
2018-05-02T09:37:25.713Z,999.38
2018-05-02T09:39:18.580Z,999.43
2018-05-02T09:40:18.565Z,999.41
2018-05-02T09:42:11.442Z,999.40
2018-05-02T09:43:11.412Z,999.38
2018-05-02T09:45:04.276Z,999.35
2018-05-02T09:46:04.260Z,999.39
2018-05-02T09:47:57.137Z,999.34
2018-05-02T09:48:57.111Z,999.40
2018-05-02T09:50:49.977Z,999.35
2018-05-02T09:51:49.960Z,999.32
2018-05-02T09:53:42.833Z,999.30
2018-05-02T09:54:42.807Z,999.31
2018-05-02T09:56:35.671Z,999.31
2018-05-02T09:57:35.657Z,999.28
2018-05-02T09:59:28.537Z,999.30
2018-05-02T10:00:28.504Z,999.28
2018-05-02T10:02:21.365Z,999.31
2018-05-02T10:03:21.349Z,999.29
2018-05-02T10:05:14.221Z,999.27
2018-05-02T10:06:14.194Z,999.27
2018-05-02T10:08:07.056Z,999.22
2018-05-02T10:09:07.038Z,999.26
2018-05-02T10:10:59.908Z,999.25
2018-05-02T10:11:59.889Z,999.19
2018-05-02T10:13:52.748Z,999.10
2018-05-02T10:14:52.731Z,999.12
2018-05-02T10:16:45.603Z,999.12
2018-05-02T10:17:45.578Z,999.14
2018-05-02T10:19:38.435Z,999.13
2018-05-02T10:20:38.423Z,999.10
2018-05-02T10:22:31.293Z,999.12
2018-05-02T10:23:31.274Z,999.11
2018-05-02T10:25:24.129Z,999.07
2018-05-02T10:26:24.138Z,999.09
2018-05-02T10:28:17.004Z,999.08
2018-05-02T10:29:16.983Z,999.05
2018-05-02T10:31:09.842Z,999.02
2018-05-02T10:32:09.827Z,998.99
2018-05-02T10:34:02.701Z,998.96
2018-05-02T10:35:02.672Z,998.95
2018-05-02T10:36:55.565Z,998.93
2018-05-02T10:37:55.520Z,998.95
2018-05-02T10:39:48.390Z,998.92
2018-05-02T10:40:48.361Z,998.94
2018-05-02T10:42:41.296Z,998.90
2018-05-02T10:43:41.211Z,998.93
2018-05-02T10:45:34.080Z,998.95
2018-05-02T10:46:34.057Z,999.00
2018-05-02T10:48:26.920Z,998.95
2018-05-02T10:49:26.903Z,998.96
2018-05-02T10:51:19.781Z,998.95
2018-05-02T10:52:19.757Z,998.98
2018-05-02T10:54:12.617Z,998.99
2018-05-02T10:55:12.605Z,998.93
2018-05-02T10:57:05.481Z,998.89
2018-05-02T10:58:05.461Z,998.96
2018-05-02T10:59:58.321Z,998.90
2018-05-02T11:00:58.307Z,998.88
2018-05-02T11:02:51.191Z,998.81
2018-05-02T11:03:51.165Z,998.82
2018-05-02T11:05:44.033Z,998.73
2018-05-02T11:06:44.020Z,998.73
2018-05-02T11:08:36.896Z,998.72
2018-05-02T11:09:36.878Z,998.69
2018-05-02T11:11:29.743Z,998.68
2018-05-02T11:12:29.730Z,998.66
2018-05-02T11:14:22.606Z,998.70
2018-05-02T11:15:22.586Z,998.71
2018-05-02T11:17:15.454Z,998.72
2018-05-02T11:18:15.441Z,998.72
2018-05-02T11:20:08.320Z,998.64
2018-05-02T11:21:08.297Z,998.63
2018-05-02T11:23:01.162Z,998.55
2018-05-02T11:24:01.152Z,998.53
2018-05-02T11:25:54.035Z,998.57
2018-05-02T11:26:54.004Z,998.53
2018-05-02T11:28:46.873Z,998.58
2018-05-02T11:29:46.864Z,998.62
2018-05-02T11:31:39.739Z,998.57
2018-05-02T11:32:39.718Z,998.54
2018-05-02T11:34:32.590Z,998.49
2018-05-02T11:35:32.576Z,998.45
2018-05-02T11:37:25.472Z,998.45
2018-05-02T11:38:25.437Z,998.43
2018-05-02T11:40:18.312Z,998.49
2018-05-02T11:41:18.299Z,998.48
2018-05-02T11:43:11.174Z,998.53
2018-05-02T11:44:11.150Z,998.54
2018-05-02T11:46:04.038Z,998.55
2018-05-02T11:47:04.021Z,998.48
2018-05-02T11:48:56.883Z,998.56
2018-05-02T11:49:56.862Z,998.54
2018-05-02T11:51:49.739Z,998.48
2018-05-02T11:52:49.726Z,998.48
2018-05-02T11:54:42.609Z,998.46
2018-05-02T11:55:42.591Z,998.43
2018-05-02T11:57:35.463Z,998.44
2018-05-02T11:58:35.447Z,998.43
2018-05-02T12:00:28.349Z,998.40
2018-05-02T12:01:28.303Z,998.45
2018-05-02T12:03:21.687Z,998.44
2018-05-02T12:04:21.162Z,998.45
2018-05-02T12:06:14.035Z,998.37
2018-05-02T12:07:14.018Z,998.40
2018-05-02T12:09:06.887Z,998.39
2018-05-02T12:10:06.881Z,998.36
2018-05-02T12:11:59.758Z,998.37
2018-05-02T12:12:59.736Z,998.37
2018-05-02T12:14:52.605Z,998.32
2018-05-02T12:15:52.592Z,998.34
2018-05-02T12:17:45.471Z,998.30
2018-05-02T12:18:45.448Z,998.34
2018-05-02T12:20:38.319Z,998.27
2018-05-02T12:21:38.308Z,998.27
2018-05-02T12:23:31.190Z,998.27
2018-05-02T12:24:31.164Z,998.21
2018-05-02T12:26:24.037Z,998.20
2018-05-02T12:27:24.023Z,998.20
2018-05-02T12:29:16.909Z,998.21
2018-05-02T12:30:16.886Z,998.26
2018-05-02T12:32:09.762Z,998.30
2018-05-02T12:33:09.806Z,998.33
2018-05-02T12:35:02.624Z,998.27
2018-05-02T12:36:02.605Z,998.31
2018-05-02T12:37:55.473Z,998.22
2018-05-02T12:38:55.463Z,998.22
2018-05-02T12:40:48.382Z,998.21
2018-05-02T12:41:48.324Z,998.25
2018-05-02T12:43:41.194Z,998.26
2018-05-02T12:44:41.183Z,998.23
2018-05-02T12:46:34.081Z,998.21
2018-05-02T12:47:34.044Z,998.19
2018-05-02T12:49:26.910Z,998.15
2018-05-02T12:50:26.899Z,998.13
2018-05-02T12:52:19.780Z,998.07
2018-05-02T12:53:19.758Z,998.12
2018-05-02T12:55:12.631Z,998.09
2018-05-02T12:56:12.728Z,998.08
2018-05-02T12:58:05.497Z,998.08
2018-05-02T12:59:05.472Z,998.08
2018-05-02T13:00:58.343Z,998.02
2018-05-02T13:01:58.334Z,998.01
2018-05-02T13:03:51.212Z,997.95
2018-05-02T13:04:51.188Z,998.00
2018-05-02T13:06:44.067Z,998.06
2018-05-02T13:07:44.053Z,998.02
2018-05-02T13:09:36.929Z,997.90
2018-05-02T13:10:36.912Z,997.92
2018-05-02T13:12:29.782Z,997.90
2018-05-02T13:13:29.767Z,998.00
2018-05-02T13:15:22.655Z,997.86
2018-05-02T13:16:22.627Z,997.95
2018-05-02T13:18:15.500Z,997.91
2018-05-02T13:19:15.489Z,997.90
2018-05-02T13:21:08.371Z,997.88
2018-05-02T13:22:08.347Z,997.91
2018-05-02T13:24:02.213Z,997.91
2018-05-02T13:25:02.202Z,997.91
2018-05-02T13:26:55.085Z,997.84
2018-05-02T13:27:55.067Z,997.90
2018-05-02T13:29:47.939Z,997.90
2018-05-02T13:30:47.928Z,997.86
2018-05-02T13:32:40.811Z,997.72
2018-05-02T13:33:40.785Z,997.71
2018-05-02T13:35:33.662Z,997.60
2018-05-02T13:36:33.651Z,997.62
2018-05-02T13:38:26.531Z,997.55
2018-05-02T13:39:26.557Z,997.51
2018-05-02T13:41:19.384Z,997.50
2018-05-02T13:42:19.372Z,997.48
2018-05-02T13:44:12.252Z,997.49
2018-05-02T13:45:12.237Z,997.43
2018-05-02T13:47:05.112Z,997.44
2018-05-02T13:48:05.097Z,997.39
2018-05-02T13:49:57.984Z,997.43
2018-05-02T13:50:57.961Z,997.38
2018-05-02T13:52:50.829Z,997.39
2018-05-02T13:53:50.819Z,997.35
2018-05-02T13:55:43.697Z,997.30
2018-05-02T13:56:43.679Z,997.25
2018-05-02T13:58:36.550Z,997.24
2018-05-02T13:59:36.537Z,997.24
2018-05-02T14:01:29.421Z,997.21
2018-05-02T14:02:29.399Z,997.23
2018-05-02T14:04:22.268Z,997.31
2018-05-02T14:05:22.257Z,997.25
2018-05-02T14:07:15.141Z,997.25
2018-05-02T14:08:15.192Z,997.31
2018-05-02T14:10:07.985Z,997.25
2018-05-02T14:11:07.975Z,997.22
2018-05-02T14:13:00.853Z,997.21
2018-05-02T14:14:00.833Z,997.29
2018-05-02T14:15:53.708Z,997.25
2018-05-02T14:16:53.694Z,997.20
2018-05-02T14:18:46.574Z,997.11
2018-05-02T14:19:46.549Z,997.09
2018-05-02T14:21:39.420Z,997.13
2018-05-02T14:22:39.410Z,997.13
2018-05-02T14:24:32.297Z,997.08
2018-05-02T14:25:32.273Z,997.07
2018-05-02T14:27:25.144Z,997.10
2018-05-02T14:28:25.132Z,997.06
2018-05-02T14:30:18.011Z,997.03
2018-05-02T14:31:17.997Z,996.98
2018-05-02T14:33:10.868Z,997.04
2018-05-02T14:34:10.855Z,997.02
2018-05-02T14:36:03.745Z,996.94
2018-05-02T14:37:03.716Z,996.90
2018-05-02T14:38:56.589Z,996.90
2018-05-02T14:39:56.578Z,996.93
2018-05-02T14:41:49.460Z,996.92
2018-05-02T14:42:49.434Z,996.89
2018-05-02T14:44:42.307Z,996.90
2018-05-02T14:45:42.305Z,996.90
2018-05-02T14:47:35.173Z,996.87
2018-05-02T14:48:35.151Z,996.89
2018-05-02T14:50:28.022Z,996.79
2018-05-02T14:51:28.009Z,996.78
2018-05-02T14:53:20.889Z,996.78
2018-05-02T14:54:20.868Z,996.80
2018-05-02T14:56:13.770Z,996.82
2018-05-02T14:57:13.723Z,996.89
2018-05-02T14:59:06.611Z,996.84
2018-05-02T15:00:06.589Z,996.84
2018-05-02T15:01:59.490Z,996.76
2018-05-02T15:02:59.441Z,996.79
2018-05-02T15:04:52.319Z,996.79
2018-05-02T15:05:52.298Z,996.86
2018-05-02T15:07:45.163Z,996.89
2018-05-02T15:08:45.149Z,996.89
2018-05-02T15:10:38.030Z,996.89
2018-05-02T15:11:38.005Z,996.81
2018-05-02T15:13:30.896Z,996.80
2018-05-02T15:14:30.888Z,996.77
2018-05-02T15:16:23.755Z,996.80
2018-05-02T15:17:23.736Z,996.79
2018-05-02T15:19:16.601Z,996.85
2018-05-02T15:20:16.588Z,996.84
2018-05-02T15:22:09.468Z,996.81
2018-05-02T15:23:09.442Z,996.79
2018-05-02T15:25:02.329Z,996.81
2018-05-02T15:26:02.293Z,996.83
2018-05-02T15:27:55.171Z,996.87
2018-05-02T15:28:55.148Z,996.86
2018-05-02T15:30:48.012Z,996.88
2018-05-02T15:31:48.002Z,996.88
2018-05-02T15:33:40.977Z,996.84
2018-05-02T15:34:40.860Z,996.83
2018-05-02T15:36:33.723Z,996.81
2018-05-02T15:37:33.715Z,996.79
2018-05-02T15:39:26.600Z,996.84
2018-05-02T15:40:26.680Z,996.86
2018-05-02T15:42:19.443Z,996.93
2018-05-02T15:43:19.430Z,996.95
2018-05-02T15:45:12.306Z,996.98
2018-05-02T15:46:12.289Z,996.93
2018-05-02T15:48:05.175Z,996.99
2018-05-02T15:49:05.162Z,997.00
2018-05-02T15:50:58.037Z,996.97
2018-05-02T15:51:58.041Z,996.96
2018-05-02T15:53:50.892Z,996.88
2018-05-02T15:54:50.876Z,996.89
2018-05-02T15:56:43.750Z,996.80
2018-05-02T15:57:43.790Z,996.87
2018-05-02T15:59:36.590Z,996.88
2018-05-02T16:00:36.575Z,996.86
2018-05-02T16:02:29.453Z,996.85
2018-05-02T16:03:29.429Z,996.82
2018-05-02T16:05:22.323Z,996.81
2018-05-02T16:06:22.293Z,996.82
2018-05-02T16:08:15.167Z,996.79
2018-05-02T16:09:15.144Z,996.80
2018-05-02T16:11:08.012Z,996.79
2018-05-02T16:12:08.003Z,996.78
2018-05-02T16:14:00.875Z,996.73
2018-05-02T16:15:00.848Z,996.76
2018-05-02T16:16:53.712Z,996.80
2018-05-02T16:17:53.700Z,996.80
2018-05-02T16:19:46.621Z,996.84
2018-05-02T16:20:46.583Z,996.82
2018-05-02T16:22:39.447Z,996.88
2018-05-02T16:23:39.431Z,996.88
2018-05-02T16:25:32.309Z,996.85
2018-05-02T16:26:32.278Z,996.82
2018-05-02T16:28:25.139Z,996.83
2018-05-02T16:29:25.124Z,996.82
2018-05-02T16:31:18.002Z,996.81
2018-05-02T16:32:17.974Z,996.82
2018-05-02T16:34:10.841Z,996.83
2018-05-02T16:35:10.826Z,996.87
2018-05-02T16:37:03.701Z,996.90
2018-05-02T16:38:03.677Z,996.88
2018-05-02T16:39:56.533Z,996.92
2018-05-02T16:40:56.521Z,996.92
2018-05-02T16:42:49.397Z,996.89
2018-05-02T16:43:49.367Z,996.85
2018-05-02T16:45:42.233Z,996.91
2018-05-02T16:46:42.216Z,996.85
2018-05-02T16:48:35.090Z,996.83
2018-05-02T16:49:35.064Z,996.83
2018-05-02T16:51:27.926Z,996.84
2018-05-02T16:52:27.912Z,996.85
2018-05-02T16:54:20.858Z,996.87
2018-05-02T16:55:20.761Z,996.93
2018-05-02T16:57:13.621Z,996.89
2018-05-02T16:58:13.610Z,996.90
2018-05-02T17:00:06.482Z,996.88
2018-05-02T17:01:06.455Z,996.86
2018-05-02T17:02:59.317Z,996.83
2018-05-02T17:03:59.303Z,996.84
2018-05-02T17:05:52.179Z,996.90
2018-05-02T17:06:52.151Z,996.92
2018-05-02T17:08:45.017Z,996.97
2018-05-02T17:09:44.997Z,996.94
2018-05-02T17:11:37.871Z,996.96
2018-05-02T17:12:37.845Z,996.98
2018-05-02T17:14:30.707Z,997.00
2018-05-02T17:15:30.692Z,996.97
2018-05-02T17:17:23.565Z,996.98
2018-05-02T17:18:23.538Z,997.02
2018-05-02T17:20:16.397Z,997.03
2018-05-02T17:21:16.383Z,996.99
2018-05-02T17:23:09.257Z,997.01
2018-05-02T17:24:09.226Z,997.02
2018-05-02T17:26:02.090Z,997.06
2018-05-02T17:27:02.073Z,997.01
2018-05-02T17:28:54.941Z,997.08
2018-05-02T17:29:54.918Z,997.04
2018-05-02T17:31:47.779Z,997.04
2018-05-02T17:32:47.763Z,997.04
2018-05-02T17:34:40.639Z,997.08
2018-05-02T17:35:40.610Z,997.07
2018-05-02T17:37:33.472Z,997.06
2018-05-02T17:38:33.455Z,997.09
2018-05-02T17:40:26.323Z,997.04
2018-05-02T17:41:26.298Z,997.08
2018-05-02T17:43:19.155Z,997.07
2018-05-02T17:44:19.139Z,997.03
2018-05-02T17:46:12.024Z,997.07